createdAt,value
2018-06-19T00:00:56.377Z,1020.93
2018-06-19T00:02:23.883Z,1020.92
2018-06-19T00:03:51.378Z,1020.93
2018-06-19T00:05:18.872Z,1020.91
2018-06-19T00:06:46.088Z,1020.90
2018-06-19T00:08:13.542Z,1020.91
2018-06-19T00:09:41.169Z,1020.91
2018-06-19T00:11:08.725Z,1020.90
2018-06-19T00:12:36.090Z,1020.87
2018-06-19T00:14:03.583Z,1020.86
2018-06-19T00:15:30.761Z,1020.84
2018-06-19T00:16:58.351Z,1020.83
2018-06-19T00:18:25.860Z,1020.86
2018-06-19T00:19:53.328Z,1020.87
2018-06-19T00:21:20.770Z,1020.87
2018-06-19T00:22:48.327Z,1020.88
2018-06-19T00:24:15.555Z,1020.89
2018-06-19T00:25:43.124Z,1020.87
2018-06-19T00:27:10.378Z,1020.85
2018-06-19T00:28:37.878Z,1020.85
2018-06-19T00:30:05.274Z,1020.86
2018-06-19T00:31:32.597Z,1020.84
2018-06-19T00:33:00.115Z,1020.82
2018-06-19T00:34:27.800Z,1020.77
2018-06-19T00:35:55.232Z,1020.72
2018-06-19T00:37:22.089Z,1020.68
2018-06-19T00:38:49.471Z,1020.68
2018-06-19T00:40:16.988Z,1020.68
2018-06-19T00:41:44.450Z,1020.70
2018-06-19T00:43:12.187Z,1020.66
2018-06-19T00:44:39.746Z,1020.62
2018-06-19T00:46:06.815Z,1020.62
2018-06-19T00:47:34.280Z,1020.64
2018-06-19T00:49:01.879Z,1020.63
2018-06-19T00:50:29.529Z,1020.62
2018-06-19T00:51:57.306Z,1020.61
2018-06-19T00:53:24.814Z,1020.60
2018-06-19T00:54:52.147Z,1020.60
2018-06-19T00:56:19.526Z,1020.56
2018-06-19T00:57:47.205Z,1020.55
2018-06-19T00:59:14.477Z,1020.56
2018-06-19T01:00:41.837Z,1020.57
2018-06-19T01:02:09.232Z,1020.65
2018-06-19T01:03:36.691Z,1020.70
2018-06-19T01:05:04.053Z,1020.71
2018-06-19T01:06:31.813Z,1020.69
2018-06-19T01:07:58.702Z,1020.67
2018-06-19T01:09:26.248Z,1020.71
2018-06-19T01:10:53.538Z,1020.72
2018-06-19T01:12:21.303Z,1020.70
2018-06-19T01:13:48.468Z,1020.65
2018-06-19T01:15:16.176Z,1020.62
2018-06-19T01:16:43.585Z,1020.59
2018-06-19T01:18:10.724Z,1020.56
2018-06-19T01:19:38.296Z,1020.55
2018-06-19T01:21:05.693Z,1020.52
2018-06-19T01:22:33.103Z,1020.54
2018-06-19T01:24:00.471Z,1020.54
2018-06-19T01:25:27.717Z,1020.51
2018-06-19T01:26:55.301Z,1020.50
2018-06-19T01:28:22.875Z,1020.54
2018-06-19T01:29:50.326Z,1020.58
2018-06-19T01:31:17.768Z,1020.56
2018-06-19T01:32:45.175Z,1020.59
2018-06-19T01:34:12.540Z,1020.62
2018-06-19T01:35:39.971Z,1020.63
2018-06-19T01:37:07.367Z,1020.65
2018-06-19T01:38:34.718Z,1020.68
2018-06-19T01:40:02.251Z,1020.71
2018-06-19T01:41:29.928Z,1020.72
2018-06-19T01:42:57.276Z,1020.69
2018-06-19T01:44:24.851Z,1020.70
2018-06-19T01:45:51.843Z,1020.68
2018-06-19T01:47:19.410Z,1020.68
2018-06-19T01:48:46.668Z,1020.71
2018-06-19T01:50:14.244Z,1020.70
2018-06-19T01:51:41.724Z,1020.75
2018-06-19T01:53:09.484Z,1020.79
2018-06-19T01:54:36.942Z,1020.75
2018-06-19T01:56:04.314Z,1020.75
2018-06-19T01:57:31.879Z,1020.75
2018-06-19T01:58:59.401Z,1020.77
2018-06-19T02:00:26.890Z,1020.81
2018-06-19T02:01:54.259Z,1020.79
2018-06-19T02:03:21.601Z,1020.79
2018-06-19T02:04:48.939Z,1020.78
2018-06-19T02:06:16.295Z,1020.77
2018-06-19T02:07:43.530Z,1020.79
2018-06-19T02:09:10.953Z,1020.81
2018-06-19T02:10:38.557Z,1020.78
2018-06-19T02:12:05.945Z,1020.73
2018-06-19T02:13:33.358Z,1020.71
2018-06-19T02:15:00.593Z,1020.73
2018-06-19T02:16:28.001Z,1020.77
2018-06-19T02:17:55.616Z,1020.78
2018-06-19T02:19:22.820Z,1020.74
2018-06-19T02:20:50.378Z,1020.75
2018-06-19T02:22:17.722Z,1020.75
2018-06-19T02:23:45.213Z,1020.77
2018-06-19T02:25:12.806Z,1020.76
2018-06-19T02:26:40.082Z,1020.79
2018-06-19T02:28:07.545Z,1020.79
2018-06-19T02:29:34.900Z,1020.81
2018-06-19T02:31:02.251Z,1020.83
2018-06-19T02:32:29.707Z,1020.82
2018-06-19T02:33:57.229Z,1020.79
2018-06-19T02:35:24.677Z,1020.78
2018-06-19T02:36:51.968Z,1020.77
2018-06-19T02:38:19.462Z,1020.83
2018-06-19T02:39:46.873Z,1020.84
2018-06-19T02:41:14.284Z,1020.85
2018-06-19T02:42:41.706Z,1020.84
2018-06-19T02:44:09.235Z,1020.84
2018-06-19T02:45:36.480Z,1020.86
2018-06-19T02:47:04.016Z,1020.85
2018-06-19T02:48:31.470Z,1020.84
2018-06-19T02:49:58.836Z,1020.84
2018-06-19T02:51:26.267Z,1020.88
2018-06-19T02:52:53.689Z,1020.88
2018-06-19T02:54:21.035Z,1020.89
2018-06-19T02:55:48.542Z,1020.91
2018-06-19T02:57:15.749Z,1020.90
2018-06-19T02:58:43.087Z,1020.92
2018-06-19T03:00:10.475Z,1020.94
2018-06-19T03:01:37.910Z,1020.96
2018-06-19T03:03:05.430Z,1020.96
2018-06-19T03:04:32.907Z,1020.96
2018-06-19T03:06:00.471Z,1020.99
2018-06-19T03:07:27.791Z,1021.03
2018-06-19T03:08:55.274Z,1021.06
2018-06-19T03:10:22.491Z,1021.11
2018-06-19T03:11:50.075Z,1021.13
2018-06-19T03:13:17.362Z,1021.18
2018-06-19T03:14:44.975Z,1021.17
2018-06-19T03:16:12.210Z,1021.14
2018-06-19T03:17:39.821Z,1021.09
2018-06-19T03:19:07.149Z,1021.10
2018-06-19T03:20:34.441Z,1021.09
2018-06-19T03:22:01.733Z,1021.11
2018-06-19T03:23:29.046Z,1021.08
2018-06-19T03:24:56.461Z,1021.10
2018-06-19T03:26:23.941Z,1021.11
2018-06-19T03:27:51.295Z,1021.12
2018-06-19T03:29:18.919Z,1021.18
2018-06-19T03:30:46.368Z,1021.18
2018-06-19T03:32:13.814Z,1021.19
2018-06-19T03:33:41.131Z,1021.24
2018-06-19T03:35:08.576Z,1021.26
2018-06-19T03:36:36.032Z,1021.26
2018-06-19T03:38:03.572Z,1021.28
2018-06-19T03:39:31.018Z,1021.31
2018-06-19T03:40:58.446Z,1021.30
2018-06-19T03:42:26.114Z,1021.29
2018-06-19T03:43:53.495Z,1021.29
2018-06-19T03:45:20.877Z,1021.33
2018-06-19T03:46:48.401Z,1021.32
2018-06-19T03:48:15.883Z,1021.27
2018-06-19T03:49:43.335Z,1021.28
2018-06-19T03:51:10.664Z,1021.31
2018-06-19T03:52:38.034Z,1021.29
2018-06-19T03:54:05.699Z,1021.31
2018-06-19T03:55:33.125Z,1021.29
2018-06-19T03:57:00.577Z,1021.30
2018-06-19T03:58:27.997Z,1021.27
2018-06-19T03:59:55.393Z,1021.24
2018-06-19T04:01:22.877Z,1021.23
2018-06-19T04:02:50.285Z,1021.24
2018-06-19T04:04:17.485Z,1021.22
2018-06-19T04:05:44.781Z,1021.21
2018-06-19T04:07:12.223Z,1021.25
2018-06-19T04:08:39.700Z,1021.29
2018-06-19T04:10:07.165Z,1021.31
2018-06-19T04:11:34.626Z,1021.31
2018-06-19T04:13:02.106Z,1021.30
2018-06-19T04:14:29.585Z,1021.34
2018-06-19T04:15:56.748Z,1021.34
2018-06-19T04:17:24.146Z,1021.38
2018-06-19T04:18:51.645Z,1021.40
2018-06-19T04:20:19.261Z,1021.44
2018-06-19T04:21:46.808Z,1021.43
2018-06-19T04:23:14.169Z,1021.42
2018-06-19T04:24:41.624Z,1021.41
2018-06-19T04:26:08.833Z,1021.37
2018-06-19T04:27:36.324Z,1021.35
2018-06-19T04:29:03.517Z,1021.35
2018-06-19T04:30:31.206Z,1021.36
2018-06-19T04:31:58.332Z,1021.38
2018-06-19T04:33:26.103Z,1021.40
2018-06-19T04:34:53.582Z,1021.39
2018-06-19T04:36:20.859Z,1021.44
2018-06-19T04:37:48.422Z,1021.42
2018-06-19T04:39:15.805Z,1021.40
2018-06-19T04:40:43.129Z,1021.35
2018-06-19T04:42:10.415Z,1021.33
2018-06-19T04:43:37.984Z,1021.36
2018-06-19T04:45:05.461Z,1021.38
2018-06-19T04:46:32.901Z,1021.38
2018-06-19T04:48:00.342Z,1021.38
2018-06-19T04:49:27.672Z,1021.39
2018-06-19T04:50:55.214Z,1021.37
2018-06-19T04:52:22.850Z,1021.37
2018-06-19T04:53:50.283Z,1021.36
2018-06-19T04:55:17.659Z,1021.34
2018-06-19T04:56:45.238Z,1021.34
2018-06-19T04:58:13.476Z,1021.32
2018-06-19T04:59:40.002Z,1021.28
2018-06-19T05:01:07.565Z,1021.26
2018-06-19T05:02:35.080Z,1021.25
2018-06-19T05:04:02.296Z,1021.29
2018-06-19T05:05:29.964Z,1021.31
2018-06-19T05:06:57.320Z,1021.27
2018-06-19T05:08:24.828Z,1021.29
2018-06-19T05:09:52.178Z,1021.27
2018-06-19T05:11:19.691Z,1021.27
2018-06-19T05:12:47.166Z,1021.24
2018-06-19T05:14:14.611Z,1021.28
2018-06-19T05:15:41.934Z,1021.33
2018-06-19T05:17:09.516Z,1021.30
2018-06-19T05:18:36.972Z,1021.36
2018-06-19T05:20:04.244Z,1021.38
2018-06-19T05:21:31.806Z,1021.39
2018-06-19T05:22:59.237Z,1021.34
2018-06-19T05:24:27.045Z,1021.31
2018-06-19T05:25:53.911Z,1021.25
2018-06-19T05:27:21.392Z,1021.26
2018-06-19T05:28:48.396Z,1021.27
2018-06-19T05:30:15.844Z,1021.29
2018-06-19T05:31:43.116Z,1021.27
2018-06-19T05:33:10.578Z,1021.24
2018-06-19T05:34:37.992Z,1021.23
2018-06-19T05:36:05.547Z,1021.20
2018-06-19T05:37:32.968Z,1021.17
2018-06-19T05:39:00.391Z,1021.19
2018-06-19T05:40:28.062Z,1021.21
2018-06-19T05:41:55.260Z,1021.19
2018-06-19T05:43:22.682Z,1021.19
2018-06-19T05:44:50.109Z,1021.24
2018-06-19T05:46:17.690Z,1021.26
2018-06-19T05:47:45.286Z,1021.26
2018-06-19T05:49:12.543Z,1021.26
2018-06-19T05:50:39.747Z,1021.24
2018-06-19T05:52:07.277Z,1021.25
2018-06-19T05:53:34.604Z,1021.27
2018-06-19T05:55:02.149Z,1021.26
2018-06-19T05:56:29.541Z,1021.29
2018-06-19T05:57:56.976Z,1021.30
2018-06-19T05:59:24.381Z,1021.26
2018-06-19T06:00:51.889Z,1021.27
2018-06-19T06:02:18.854Z,1021.27
2018-06-19T06:03:46.139Z,1021.27
2018-06-19T06:05:13.426Z,1021.23
2018-06-19T06:06:40.725Z,1021.28
2018-06-19T06:08:08.208Z,1021.32
2018-06-19T06:09:35.736Z,1021.32
2018-06-19T06:11:03.215Z,1021.33
2018-06-19T06:12:30.708Z,1021.30
2018-06-19T06:13:58.360Z,1021.27
2018-06-19T06:15:25.622Z,1021.25
2018-06-19T06:16:53.192Z,1021.28
2018-06-19T06:18:20.569Z,1021.22
2018-06-19T06:19:47.851Z,1021.18
2018-06-19T06:21:15.474Z,1021.19
2018-06-19T06:22:42.798Z,1021.22
2018-06-19T06:24:10.214Z,1021.19
2018-06-19T06:25:37.834Z,1021.20
2018-06-19T06:27:05.367Z,1021.21
2018-06-19T06:28:32.717Z,1021.22
2018-06-19T06:30:00.529Z,1021.20
2018-06-19T06:31:28.018Z,1021.21
2018-06-19T06:32:55.298Z,1021.27
2018-06-19T06:34:22.591Z,1021.27
2018-06-19T06:35:50.299Z,1021.29
2018-06-19T06:37:17.640Z,1021.28
2018-06-19T06:38:45.254Z,1021.29
2018-06-19T06:40:12.603Z,1021.32
2018-06-19T06:41:40.165Z,1021.30
2018-06-19T06:43:07.563Z,1021.25
2018-06-19T06:44:35.006Z,1021.21
2018-06-19T06:46:02.461Z,1021.28
2018-06-19T06:47:29.962Z,1021.31
2018-06-19T06:48:57.329Z,1021.26
2018-06-19T06:50:24.857Z,1021.28
2018-06-19T06:51:52.252Z,1021.30
2018-06-19T06:53:19.795Z,1021.27
2018-06-19T06:54:47.057Z,1021.32
2018-06-19T06:56:14.442Z,1021.27
2018-06-19T06:57:41.829Z,1021.28
2018-06-19T06:59:08.513Z,1021.26
2018-06-19T07:00:36.175Z,1021.23
2018-06-19T07:02:03.632Z,1021.24
2018-06-19T07:03:31.162Z,1021.21
2018-06-19T07:04:58.576Z,1021.29
2018-06-19T07:06:25.560Z,1021.46
2018-06-19T07:07:53.083Z,1021.51
2018-06-19T07:09:20.591Z,1021.53
2018-06-19T07:10:48.104Z,1021.53
2018-06-19T07:12:15.521Z,1021.61
2018-06-19T07:13:43.062Z,1021.59
2018-06-19T07:15:10.320Z,1021.59
2018-06-19T07:16:37.893Z,1021.58
2018-06-19T07:18:05.616Z,1021.56
2018-06-19T07:19:33.475Z,1021.55
2018-06-19T07:21:00.959Z,1021.53
2018-06-19T07:22:28.551Z,1021.51
2018-06-19T07:23:55.829Z,1021.46
2018-06-19T07:25:23.375Z,1021.47
2018-06-19T07:26:50.903Z,1021.45
2018-06-19T07:28:18.361Z,1021.42
2018-06-19T07:29:45.963Z,1021.42
2018-06-19T07:31:13.410Z,1021.42
2018-06-19T07:32:41.085Z,1021.46
2018-06-19T07:34:08.555Z,1021.50
2018-06-19T07:35:36.133Z,1021.52
2018-06-19T07:37:03.603Z,1021.49
2018-06-19T07:38:31.151Z,1021.53
2018-06-19T07:39:58.734Z,1021.51
2018-06-19T07:41:26.302Z,1021.51
2018-06-19T07:42:53.717Z,1021.51
2018-06-19T07:44:21.062Z,1021.57
2018-06-19T07:45:48.435Z,1021.55
2018-06-19T07:47:15.995Z,1021.58
2018-06-19T07:48:43.515Z,1021.60
2018-06-19T07:50:10.884Z,1021.65
2018-06-19T07:51:39.701Z,1021.61
2018-06-19T07:53:05.889Z,1021.64
2018-06-19T07:54:33.576Z,1021.61
2018-06-19T07:56:00.933Z,1021.64
2018-06-19T07:57:28.409Z,1021.72
2018-06-19T07:58:55.982Z,1021.74
2018-06-19T08:00:23.690Z,1021.76
2018-06-19T08:01:51.179Z,1021.83
2018-06-19T08:03:18.630Z,1021.80
2018-06-19T08:04:46.206Z,1021.77
2018-06-19T08:06:13.505Z,1021.79
2018-06-19T08:07:41.026Z,1021.77
2018-06-19T08:09:08.601Z,1021.81
2018-06-19T08:10:36.173Z,1021.87
2018-06-19T08:12:03.857Z,1021.86
2018-06-19T08:13:31.222Z,1021.88
2018-06-19T08:14:58.740Z,1021.94
2018-06-19T08:16:26.124Z,1021.95
2018-06-19T08:17:53.528Z,1021.89
2018-06-19T08:19:21.049Z,1021.86
2018-06-19T08:20:48.701Z,1021.90
2018-06-19T08:22:16.207Z,1021.94
2018-06-19T08:28:01.828Z,1021.85
2018-06-19T08:29:29.281Z,1021.81
2018-06-19T08:30:56.966Z,1021.79
2018-06-19T08:32:24.572Z,1021.80
2018-06-19T08:33:52.130Z,1021.78
2018-06-19T08:35:19.620Z,1021.73
2018-06-19T08:36:47.039Z,1021.69
2018-06-19T08:38:14.646Z,1021.67
2018-06-19T08:39:42.226Z,1021.67
2018-06-19T08:41:09.741Z,1021.72
2018-06-19T08:42:37.071Z,1021.75
2018-06-19T08:44:04.701Z,1021.72
2018-06-19T08:45:32.161Z,1021.74
2018-06-19T08:46:59.824Z,1021.72
2018-06-19T08:48:27.132Z,1021.71
2018-06-19T08:49:54.616Z,1021.77
2018-06-19T08:51:22.100Z,1021.80
2018-06-19T08:52:50.057Z,1021.83
2018-06-19T08:54:17.573Z,1021.88
2018-06-19T08:55:45.249Z,1021.96
2018-06-19T08:57:12.771Z,1022.00
2018-06-19T08:58:40.478Z,1021.99
2018-06-19T09:00:08.202Z,1021.96
2018-06-19T09:01:35.843Z,1022.01
2018-06-19T09:03:03.389Z,1021.99
2018-06-19T09:04:31.103Z,1021.99
2018-06-19T09:05:58.743Z,1022.04
2018-06-19T09:07:26.402Z,1022.07
2018-06-19T09:08:53.929Z,1022.03
2018-06-19T09:10:21.405Z,1022.06
2018-06-19T09:11:48.962Z,1022.06
2018-06-19T09:13:16.902Z,1022.09
2018-06-19T09:14:43.997Z,1022.12
2018-06-19T09:16:11.457Z,1022.13
2018-06-19T09:17:39.203Z,1022.15
2018-06-19T09:19:06.723Z,1022.18
2018-06-19T09:20:34.188Z,1022.16
2018-06-19T09:22:01.897Z,1022.21
2018-06-19T09:23:29.585Z,1022.22
2018-06-19T09:24:57.011Z,1022.19
2018-06-19T09:26:24.556Z,1022.20
2018-06-19T09:27:51.973Z,1022.16
2018-06-19T09:29:19.524Z,1022.19
2018-06-19T09:30:46.728Z,1022.22
2018-06-19T09:32:14.303Z,1022.25
2018-06-19T09:33:41.892Z,1022.24
2018-06-19T09:35:09.420Z,1022.21
2018-06-19T09:36:37.014Z,1022.24
2018-06-19T09:38:04.248Z,1022.20
2018-06-19T09:39:31.690Z,1022.20
2018-06-19T09:40:59.435Z,1022.18
2018-06-19T09:42:26.880Z,1022.16
2018-06-19T09:43:54.515Z,1022.09
2018-06-19T09:45:21.886Z,1022.11
2018-06-19T09:46:49.604Z,1022.10
2018-06-19T09:48:17.019Z,1022.09
2018-06-19T09:49:44.426Z,1022.11
2018-06-19T09:51:11.984Z,1022.14
2018-06-19T09:52:39.607Z,1022.19
2018-06-19T09:54:07.240Z,1022.13
2018-06-19T09:55:34.782Z,1022.10
2018-06-19T09:57:02.450Z,1022.12
2018-06-19T09:58:29.892Z,1022.14
2018-06-19T09:59:57.335Z,1022.10
2018-06-19T10:01:24.838Z,1022.09
2018-06-19T10:02:52.410Z,1022.09
2018-06-19T10:04:19.981Z,1022.04
2018-06-19T10:05:47.468Z,1022.03
2018-06-19T10:07:14.939Z,1021.97
2018-06-19T10:08:42.485Z,1021.96
2018-06-19T10:10:10.324Z,1022.00
2018-06-19T10:11:37.992Z,1022.03
2018-06-19T10:13:05.406Z,1022.00
2018-06-19T10:14:33.052Z,1022.01
2018-06-19T10:16:00.631Z,1021.97
2018-06-19T10:17:28.075Z,1021.97
2018-06-19T10:18:55.467Z,1021.96
2018-06-19T10:20:22.973Z,1021.95
2018-06-19T10:21:50.560Z,1021.94
2018-06-19T10:23:18.059Z,1021.93
2018-06-19T10:24:45.659Z,1021.94
2018-06-19T10:26:13.131Z,1021.94
2018-06-19T10:27:40.740Z,1022.03
2018-06-19T10:29:08.410Z,1022.12
2018-06-19T10:30:35.790Z,1022.13
2018-06-19T10:32:03.554Z,1022.11
2018-06-19T10:33:31.108Z,1022.14
2018-06-19T10:34:58.819Z,1022.12
2018-06-19T10:36:26.221Z,1022.13
2018-06-19T10:37:53.889Z,1022.12
2018-06-19T10:39:21.403Z,1022.06
2018-06-19T10:40:48.857Z,1022.10
2018-06-19T10:42:16.481Z,1022.09
2018-06-19T10:43:43.939Z,1022.06
2018-06-19T10:45:11.461Z,1022.04
2018-06-19T10:46:39.155Z,1022.06
2018-06-19T10:48:06.659Z,1022.07
2018-06-19T10:49:34.206Z,1022.06
2018-06-19T10:51:01.810Z,1022.10
2018-06-19T10:52:29.310Z,1022.11
2018-06-19T10:53:56.831Z,1022.07
2018-06-19T10:55:24.390Z,1022.11
2018-06-19T10:56:52.187Z,1022.13
2018-06-19T10:58:19.626Z,1022.16
2018-06-19T10:59:47.070Z,1022.16
2018-06-19T11:01:14.716Z,1022.19
2018-06-19T11:02:42.260Z,1022.25
2018-06-19T11:04:09.921Z,1022.25
2018-06-19T11:05:37.373Z,1022.26
2018-06-19T11:07:05.131Z,1022.32
2018-06-19T11:08:32.625Z,1022.34
2018-06-19T11:10:00.221Z,1022.34
2018-06-19T11:11:27.810Z,1022.31
2018-06-19T11:12:55.276Z,1022.33
2018-06-19T11:14:23.108Z,1022.34
2018-06-19T11:15:50.410Z,1022.30
2018-06-19T11:17:17.934Z,1022.28
2018-06-19T11:18:45.618Z,1022.29
2018-06-19T11:20:13.151Z,1022.33
2018-06-19T11:21:41.092Z,1022.27
2018-06-19T11:23:08.619Z,1022.29
2018-06-19T11:24:36.361Z,1022.33
2018-06-19T11:26:03.813Z,1022.33
2018-06-19T11:27:31.482Z,1022.36
2018-06-19T11:28:59.178Z,1022.34
2018-06-19T11:30:26.491Z,1022.35
2018-06-19T11:31:53.948Z,1022.32
2018-06-19T11:33:21.583Z,1022.33
2018-06-19T11:34:49.066Z,1022.26
2018-06-19T11:36:16.529Z,1022.27
2018-06-19T11:37:44.122Z,1022.26
2018-06-19T11:39:11.768Z,1022.27
2018-06-19T11:40:39.389Z,1022.33
2018-06-19T11:42:06.910Z,1022.32
2018-06-19T11:43:34.489Z,1022.31
2018-06-19T11:45:02.167Z,1022.33
2018-06-19T11:46:29.794Z,1022.25
2018-06-19T11:47:57.396Z,1022.20
2018-06-19T11:49:25.002Z,1022.17
2018-06-19T11:50:52.571Z,1022.21
2018-06-19T11:52:19.931Z,1022.23
2018-06-19T11:53:47.220Z,1022.24
2018-06-19T11:55:14.929Z,1022.20
2018-06-19T11:56:42.643Z,1022.25
2018-06-19T11:58:10.048Z,1022.31
2018-06-19T11:59:37.822Z,1022.29
2018-06-19T12:01:05.370Z,1022.29
2018-06-19T12:02:32.863Z,1022.31
2018-06-19T12:04:00.399Z,1022.30
2018-06-19T12:05:27.964Z,1022.30
2018-06-19T12:06:55.582Z,1022.36
2018-06-19T12:08:23.122Z,1022.37
2018-06-19T12:09:50.641Z,1022.37
2018-06-19T12:11:18.217Z,1022.38
2018-06-19T12:12:45.839Z,1022.41
2018-06-19T12:14:13.662Z,1022.40
2018-06-19T12:15:41.232Z,1022.40
2018-06-19T12:17:08.705Z,1022.43
2018-06-19T12:18:36.191Z,1022.39
2018-06-19T12:20:03.657Z,1022.41
2018-06-19T12:21:31.122Z,1022.42
2018-06-19T12:22:58.813Z,1022.40
2018-06-19T12:24:26.278Z,1022.43
2018-06-19T12:25:53.813Z,1022.47
2018-06-19T12:27:21.315Z,1022.48
2018-06-19T12:28:48.838Z,1022.52
2018-06-19T12:30:16.473Z,1022.54
2018-06-19T12:31:44.036Z,1022.60
2018-06-19T12:33:11.762Z,1022.62
2018-06-19T12:34:39.203Z,1022.65
2018-06-19T12:36:06.709Z,1022.66
2018-06-19T12:37:34.467Z,1022.67
2018-06-19T12:39:02.027Z,1022.70
2018-06-19T12:40:29.560Z,1022.74
2018-06-19T12:41:57.182Z,1022.75
2018-06-19T12:43:24.852Z,1022.69
2018-06-19T12:44:52.420Z,1022.69
2018-06-19T12:46:19.828Z,1022.70
2018-06-19T12:47:47.271Z,1022.69
2018-06-19T12:49:14.916Z,1022.72
2018-06-19T12:50:42.104Z,1022.73
2018-06-19T12:52:09.751Z,1022.75
2018-06-19T12:53:37.469Z,1022.76
2018-06-19T12:55:04.662Z,1022.75
2018-06-19T12:56:32.244Z,1022.76
2018-06-19T12:57:59.879Z,1022.82
2018-06-19T12:59:27.531Z,1022.84
2018-06-19T13:00:55.204Z,1022.85
2018-06-19T13:02:22.723Z,1022.86
2018-06-19T13:03:50.300Z,1022.78
2018-06-19T13:05:17.922Z,1022.77
2018-06-19T13:06:45.536Z,1022.71
2018-06-19T13:08:13.208Z,1022.72
2018-06-19T13:09:40.766Z,1022.74
2018-06-19T13:11:08.358Z,1022.77
2018-06-19T13:12:35.760Z,1022.74
2018-06-19T13:14:03.266Z,1022.76
2018-06-19T13:15:30.568Z,1022.80
2018-06-19T13:16:58.213Z,1022.79
2018-06-19T13:18:25.934Z,1022.80
2018-06-19T13:19:53.464Z,1022.85
2018-06-19T13:21:21.190Z,1022.85
2018-06-19T13:22:48.591Z,1022.86
2018-06-19T13:24:16.135Z,1022.86
2018-06-19T13:25:43.619Z,1022.87
2018-06-19T13:27:11.406Z,1022.79
2018-06-19T13:28:38.962Z,1022.76
2018-06-19T13:30:06.521Z,1022.78
2018-06-19T13:31:34.269Z,1022.79
2018-06-19T13:33:01.677Z,1022.77
2018-06-19T13:34:29.251Z,1022.79
2018-06-19T13:35:56.756Z,1022.77
2018-06-19T13:37:24.319Z,1022.81
2018-06-19T13:38:51.879Z,1022.83
2018-06-19T13:40:19.421Z,1022.87
2018-06-19T13:41:46.966Z,1022.96
2018-06-19T13:43:14.537Z,1022.95
2018-06-19T13:44:41.990Z,1022.97
2018-06-19T13:46:09.753Z,1023.04
2018-06-19T13:47:37.543Z,1023.01
2018-06-19T13:49:04.986Z,1023.03
2018-06-19T13:50:32.536Z,1023.05
2018-06-19T13:52:00.245Z,1023.01
2018-06-19T13:53:27.667Z,1023.00
2018-06-19T13:54:55.178Z,1023.03
2018-06-19T13:56:22.750Z,1023.05
2018-06-19T13:57:50.287Z,1023.05
2018-06-19T13:59:17.651Z,1023.04
2018-06-19T14:00:45.297Z,1023.06
2018-06-19T14:02:12.944Z,1023.01
2018-06-19T14:03:40.417Z,1023.03
2018-06-19T14:05:07.639Z,1023.03
2018-06-19T14:06:35.260Z,1023.05
2018-06-19T14:08:02.821Z,1023.02
2018-06-19T14:09:29.957Z,1023.04
2018-06-19T14:10:57.474Z,1023.05
2018-06-19T14:12:24.966Z,1023.03
2018-06-19T14:13:52.597Z,1022.99
2018-06-19T14:15:20.288Z,1022.95
2018-06-19T14:16:47.685Z,1022.97
2018-06-19T14:18:15.352Z,1022.97
2018-06-19T14:19:42.855Z,1022.98
2018-06-19T14:21:10.354Z,1022.98
2018-06-19T14:22:38.175Z,1022.98
2018-06-19T14:24:05.800Z,1023.04
2018-06-19T14:25:33.504Z,1023.02
2018-06-19T14:27:01.029Z,1023.04
2018-06-19T14:28:28.602Z,1023.05
2018-06-19T14:29:56.131Z,1023.00
2018-06-19T14:31:23.567Z,1022.98
2018-06-19T14:32:51.085Z,1022.96
2018-06-19T14:34:18.691Z,1022.97
2018-06-19T14:35:46.217Z,1022.99
2018-06-19T14:37:13.851Z,1022.96
2018-06-19T14:38:41.023Z,1022.99
2018-06-19T14:40:08.880Z,1022.94
2018-06-19T14:41:36.491Z,1022.92
2018-06-19T14:43:04.147Z,1022.94
2018-06-19T14:44:31.859Z,1022.97
2018-06-19T14:45:59.336Z,1022.93
2018-06-19T14:47:26.736Z,1022.95
2018-06-19T14:48:54.160Z,1022.96
2018-06-19T14:50:21.658Z,1022.97
2018-06-19T14:51:49.102Z,1023.00
2018-06-19T14:53:16.748Z,1023.01
2018-06-19T14:54:44.344Z,1022.97
2018-06-19T14:56:11.727Z,1022.90
2018-06-19T14:57:39.308Z,1022.83
2018-06-19T14:59:06.967Z,1022.82
2018-06-19T15:00:34.611Z,1022.86
2018-06-19T15:02:01.930Z,1022.80
2018-06-19T15:03:29.538Z,1022.76
2018-06-19T15:04:57.188Z,1022.77
2018-06-19T15:06:24.806Z,1022.81
2018-06-19T15:07:52.214Z,1022.79
2018-06-19T15:09:19.837Z,1022.82
2018-06-19T15:10:47.325Z,1022.82
2018-06-19T15:12:15.080Z,1022.85
2018-06-19T15:13:42.630Z,1022.88
2018-06-19T15:15:10.091Z,1022.89
2018-06-19T15:16:37.767Z,1022.86
2018-06-19T15:18:05.273Z,1022.86
2018-06-19T15:19:32.730Z,1022.86
2018-06-19T15:21:00.408Z,1022.89
2018-06-19T15:22:28.021Z,1022.89
2018-06-19T15:23:55.557Z,1022.88
2018-06-19T15:25:23.136Z,1022.91
2018-06-19T15:26:50.709Z,1022.95
2018-06-19T15:28:18.041Z,1022.95
2018-06-19T15:29:45.774Z,1022.90
2018-06-19T15:31:13.390Z,1022.92
2018-06-19T15:32:40.950Z,1022.92
2018-06-19T15:34:08.733Z,1022.93
2018-06-19T15:35:36.260Z,1022.94
2018-06-19T15:37:04.019Z,1022.96
2018-06-19T15:38:31.435Z,1022.93
2018-06-19T15:39:58.780Z,1022.93
2018-06-19T15:41:26.279Z,1022.95
2018-06-19T15:42:53.781Z,1022.97
2018-06-19T15:44:21.276Z,1022.97
2018-06-19T15:45:48.958Z,1022.99
2018-06-19T15:47:16.516Z,1022.99
2018-06-19T15:48:44.145Z,1022.99
2018-06-19T15:50:11.750Z,1023.00
2018-06-19T15:51:39.349Z,1023.03
2018-06-19T15:53:06.946Z,1022.97
2018-06-19T15:54:34.682Z,1022.99
2018-06-19T15:56:02.227Z,1023.01
2018-06-19T15:57:29.861Z,1023.04
2018-06-19T15:58:57.137Z,1023.05
2018-06-19T16:00:24.693Z,1023.05
2018-06-19T16:01:52.478Z,1023.05
2018-06-19T16:03:20.035Z,1023.05
2018-06-19T16:04:47.622Z,1023.04
2018-06-19T16:06:15.308Z,1023.03
2018-06-19T16:07:42.943Z,1023.04
2018-06-19T16:09:10.467Z,1023.04
2018-06-19T16:10:38.087Z,1023.11
2018-06-19T16:12:05.600Z,1023.14
2018-06-19T16:13:33.321Z,1023.14
2018-06-19T16:15:01.097Z,1023.12
2018-06-19T16:16:28.659Z,1023.13
2018-06-19T16:17:56.174Z,1023.11
2018-06-19T16:19:23.859Z,1023.14
2018-06-19T16:20:51.286Z,1023.13
2018-06-19T16:22:18.888Z,1023.15
2018-06-19T16:23:46.126Z,1023.14
2018-06-19T16:25:13.845Z,1023.16
2018-06-19T16:26:41.244Z,1023.13
2018-06-19T16:28:08.873Z,1023.16
2018-06-19T16:29:36.600Z,1023.22
2018-06-19T16:31:04.304Z,1023.17
2018-06-19T16:32:31.688Z,1023.14
2018-06-19T16:33:59.512Z,1023.15
2018-06-19T16:35:27.003Z,1023.16
2018-06-19T16:36:54.670Z,1023.18
2018-06-19T16:38:22.510Z,1023.18
2018-06-19T16:39:49.973Z,1023.18
2018-06-19T16:41:17.589Z,1023.19
2018-06-19T16:42:45.263Z,1023.24
2018-06-19T16:44:12.720Z,1023.19
2018-06-19T16:45:40.183Z,1023.15
2018-06-19T16:47:07.904Z,1023.14
2018-06-19T16:48:35.441Z,1023.19
2018-06-19T16:50:03.152Z,1023.22
2018-06-19T16:51:30.838Z,1023.22
2018-06-19T16:52:58.457Z,1023.21
2018-06-19T16:54:26.077Z,1023.23
2018-06-19T16:55:53.513Z,1023.22
2018-06-19T16:57:21.239Z,1023.23
2018-06-19T16:58:48.877Z,1023.20
2018-06-19T17:00:16.449Z,1023.18
2018-06-19T17:01:44.052Z,1023.18
2018-06-19T17:03:11.634Z,1023.17
2018-06-19T17:04:39.174Z,1023.17
2018-06-19T17:06:06.762Z,1023.19
2018-06-19T17:07:34.122Z,1023.23
2018-06-19T17:09:01.808Z,1023.22
2018-06-19T17:10:29.390Z,1023.26
2018-06-19T17:11:56.932Z,1023.29
2018-06-19T17:13:24.485Z,1023.32
2018-06-19T17:14:52.000Z,1023.30
2018-06-19T17:16:19.505Z,1023.28
2018-06-19T17:17:47.100Z,1023.30
2018-06-19T17:19:14.728Z,1023.29
2018-06-19T17:20:42.236Z,1023.28
2018-06-19T17:22:09.695Z,1023.32
2018-06-19T17:23:37.009Z,1023.33
2018-06-19T17:25:04.682Z,1023.37
2018-06-19T17:26:32.440Z,1023.36
2018-06-19T17:27:59.979Z,1023.40
2018-06-19T17:29:27.506Z,1023.38
2018-06-19T17:30:55.137Z,1023.38
2018-06-19T17:32:22.834Z,1023.41
2018-06-19T17:33:50.457Z,1023.41
2018-06-19T17:35:18.010Z,1023.44
2018-06-19T17:36:45.430Z,1023.48
2018-06-19T17:38:13.145Z,1023.50
2018-06-19T17:39:40.816Z,1023.49
2018-06-19T17:41:08.443Z,1023.47
2018-06-19T17:42:35.831Z,1023.49